sensor_id;sensor_type;location;lat;lon;timestamp;pressure;altitude;pressure_sealevel;temperature;humidity
42003;BME280;27693;50.506;30.832;2023-05-21T00:00:20;100425.33;;;12.66;57.50
42003;BME280;27693;50.506;30.832;2023-05-21T00:01:23;100422.08;;;12.60;57.55
42003;BME280;27693;50.506;30.832;2023-05-21T00:02:26;100422.08;;;12.60;57.55
42003;BME280;27693;50.506;30.832;2023-05-21T00:03:32;100432.25;;;12.67;58.21
42003;BME280;27693;50.506;30.832;2023-05-21T00:04:35;100431.80;;;12.57;58.07
42003;BME280;27693;50.506;30.832;2023-05-21T00:05:37;100432.72;;;12.56;57.98
42003;BME280;27693;50.506;30.832;2023-05-21T00:06:40;100426.84;;;12.51;57.90
42003;BME280;27693;50.506;30.832;2023-05-21T00:07:43;100425.72;;;12.56;57.54
42003;BME280;27693;50.506;30.832;2023-05-21T00:08:47;100428.92;;;12.63;57.35
42003;BME280;27693;50.506;30.832;2023-05-21T00:09:49;100430.10;;;12.56;57.84
42003;BME280;27693;50.506;30.832;2023-05-21T00:10:52;100439.70;;;12.55;57.72
42003;BME280;27693;50.506;30.832;2023-05-21T00:11:55;100432.78;;;12.54;57.71
42003;BME280;27693;50.506;30.832;2023-05-21T00:12:58;100425.72;;;12.56;57.79
42003;BME280;27693;50.506;30.832;2023-05-21T00:14:00;100430.94;;;12.56;57.59
42003;BME280;27693;50.506;30.832;2023-05-21T00:15:04;100428.41;;;12.55;57.77
42003;BME280;27693;50.506;30.832;2023-05-21T00:16:07;100425.60;;;12.59;57.53
42003;BME280;27693;50.506;30.832;2023-05-21T00:17:11;100425.72;;;12.56;57.70
42003;BME280;27693;50.506;30.832;2023-05-21T00:18:14;100430.94;;;12.56;57.46
42003;BME280;27693;50.506;30.832;2023-05-21T00:19:17;100430.17;;;12.54;57.64
42003;BME280;27693;50.506;30.832;2023-05-21T00:20:19;100429.38;;;12.52;57.62
42003;BME280;27693;50.506;30.832;2023-05-21T00:21:22;100429.38;;;12.52;57.62
42003;BME280;27693;50.506;30.832;2023-05-21T00:22:26;100427.95;;;12.45;58.83
42003;BME280;27693;50.506;30.832;2023-05-21T00:23:28;100434.15;;;12.42;58.25
42003;BME280;27693;50.506;30.832;2023-05-21T00:24:32;100433.42;;;12.39;58.17
42003;BME280;27693;50.506;30.832;2023-05-21T00:25:34;100436.16;;;12.36;58.54
42003;BME280;27693;50.506;30.832;2023-05-21T00:26:37;100431.61;;;12.41;57.64
42003;BME280;27693;50.506;30.832;2023-05-21T00:27:39;100434.33;;;12.38;58.07
42003;BME280;27693;50.506;30.832;2023-05-21T00:28:42;100433.31;;;12.42;57.75
42003;BME280;27693;50.506;30.832;2023-05-21T00:29:44;100430.55;;;12.45;58.13
42003;BME280;27693;50.506;30.832;2023-05-21T00:30:47;100433.95;;;12.47;57.82
42003;BME280;27693;50.506;30.832;2023-05-21T00:31:50;100434.87;;;12.46;57.74
42003;BME280;27693;50.506;30.832;2023-05-21T00:32:53;100438.27;;;12.48;57.92
42003;BME280;27693;50.506;30.832;2023-05-21T00:33:55;100433.16;;;12.45;57.84
42003;BME280;27693;50.506;30.832;2023-05-21T00:34:58;100433.16;;;12.45;57.89
42003;BME280;27693;50.506;30.832;2023-05-21T00:36:00;100430.48;;;12.46;57.88
42003;BME280;27693;50.506;30.832;2023-05-21T00:37:03;100431.54;;;12.42;58.17
42003;BME280;27693;50.506;30.832;2023-05-21T00:38:05;100432.33;;;12.44;58.18
42003;BME280;27693;50.506;30.832;2023-05-21T00:39:10;100431.61;;;12.41;58.11
42003;BME280;27693;50.506;30.832;2023-05-21T00:40:12;100419.33;;;12.43;58.24
42003;BME280;27693;50.506;30.832;2023-05-21T00:41:16;100425.41;;;12.43;58.04
42003;BME280;27693;50.506;30.832;2023-05-21T00:42:19;100423.59;;;12.45;57.97
42003;BME280;27693;50.506;30.832;2023-05-21T00:43:22;100427.16;;;12.43;58.27
42003;BME280;27693;50.506;30.832;2023-05-21T00:44:26;100418.94;;;12.32;58.36
42003;BME280;27693;50.506;30.832;2023-05-21T00:45:31;100415.98;;;12.19;58.86
42003;BME280;27693;50.506;30.832;2023-05-21T00:46:34;100419.31;;;12.22;59.04
42003;BME280;27693;50.506;30.832;2023-05-21T00:47:37;100416.92;;;12.18;58.88
42003;BME280;27693;50.506;30.832;2023-05-21T00:48:40;100419.57;;;12.16;59.00
42003;BME280;27693;50.506;30.832;2023-05-21T00:49:44;100422.97;;;12.18;59.00
42003;BME280;27693;50.506;30.832;2023-05-21T00:50:46;100417.76;;;12.18;59.26
42003;BME280;27693;50.506;30.832;2023-05-21T00:51:50;100426.38;;;12.20;59.00
42003;BME280;27693;50.506;30.832;2023-05-21T00:52:52;100418.80;;;12.14;59.37
42003;BME280;27693;50.506;30.832;2023-05-21T00:53:57;100418.12;;;12.09;59.45
42003;BME280;27693;50.506;30.832;2023-05-21T00:54:59;100419.17;;;12.05;59.60
42003;BME280;27693;50.506;30.832;2023-05-21T00:56:03;100423.48;;;12.06;59.68
42003;BME280;27693;50.506;30.832;2023-05-21T00:57:06;100425.36;;;12.02;59.75
42003;BME280;27693;50.506;30.832;2023-05-21T00:58:10;100421.23;;;11.96;59.79
42003;BME280;27693;50.506;30.832;2023-05-21T00:59:15;100424.97;;;11.89;60.07
42003;BME280;27693;50.506;30.832;2023-05-21T01:00:18;100423.95;;;11.93;60.29
42003;BME280;27693;50.506;30.832;2023-05-21T01:01:21;100419.50;;;11.95;60.11
42003;BME280;27693;50.506;30.832;2023-05-21T01:02:25;100421.34;;;11.93;60.08
42003;BME280;27693;50.506;30.832;2023-05-21T01:03:29;100423.98;;;11.92;60.32
42003;BME280;27693;50.506;30.832;2023-05-21T01:04:32;100419.64;;;11.92;60.44
42003;BME280;27693;50.506;30.832;2023-05-21T01:05:35;100426.45;;;11.96;60.21
42003;BME280;27693;50.506;30.832;2023-05-21T01:06:38;100420.33;;;11.97;60.09
42003;BME280;27693;50.506;30.832;2023-05-21T01:07:41;100419.50;;;11.95;60.14
42003;BME280;27693;50.506;30.832;2023-05-21T01:08:44;100419.50;;;11.95;60.09
42003;BME280;27693;50.506;30.832;2023-05-21T01:09:47;100422.83;;;12.01;59.71
42003;BME280;27693;50.506;30.832;2023-05-21T01:10:51;100427.25;;;11.98;60.12
42003;BME280;27693;50.506;30.832;2023-05-21T01:11:54;100420.66;;;11.88;60.34
42003;BME280;27693;50.506;30.832;2023-05-21T01:12:58;100423.23;;;11.90;60.42
42003;BME280;27693;50.506;30.832;2023-05-21T01:14:01;100424.86;;;11.92;60.10
42003;BME280;27693;50.506;30.832;2023-05-21T01:15:06;100428.38;;;11.91;60.30
42003;BME280;27693;50.506;30.832;2023-05-21T01:16:11;100418.73;;;11.93;60.12
42003;BME280;27693;50.506;30.832;2023-05-21T01:17:15;100425.59;;;11.96;60.43
42003;BME280;27693;50.506;30.832;2023-05-21T01:18:18;100425.88;;;11.88;60.24
42003;BME280;27693;50.506;30.832;2023-05-21T01:19:21;100418.98;;;11.87;60.38
42003;BME280;27693;50.506;30.832;2023-05-21T01:20:26;100419.34;;;11.78;60.75
42003;BME280;27693;50.506;30.832;2023-05-21T01:21:33;100424.80;;;11.72;60.74
42003;BME280;27693;50.506;30.832;2023-05-21T01:22:52;100419.77;;;11.67;61.04
42003;BME280;27693;50.506;30.832;2023-05-21T01:23:55;100417.47;;;11.59;61.30
42003;BME280;27693;50.506;30.832;2023-05-21T01:24:57;100411.62;;;11.53;61.52
42003;BME280;27693;50.506;30.832;2023-05-21T01:26:02;100414.30;;;11.51;61.49
42003;BME280;27693;50.506;30.832;2023-05-21T01:27:05;100412.77;;;11.45;61.60
42003;BME280;27693;50.506;30.832;2023-05-21T01:28:09;100411.20;;;11.41;62.01
42003;BME280;27693;50.506;30.832;2023-05-21T01:29:12;100397.31;;;11.41;61.93
42003;BME280;27693;50.506;30.832;2023-05-21T01:30:17;100397.31;;;11.41;61.93
42003;BME280;27693;50.506;30.832;2023-05-21T01:31:30;100405.69;;;11.49;61.75
42003;BME280;27693;50.506;30.832;2023-05-21T01:32:41;100406.42;;;11.53;61.78
42003;BME280;27693;50.506;30.832;2023-05-21T01:33:46;100404.54;;;11.56;61.43
42003;BME280;27693;50.506;30.832;2023-05-21T01:35:05;100413.64;;;11.46;61.82
42003;BME280;27693;50.506;30.832;2023-05-21T01:36:14;100404.13;;;11.45;61.79
42003;BME280;27693;50.506;30.832;2023-05-21T01:37:21;100405.02;;;11.44;61.81
42003;BME280;27693;50.506;30.832;2023-05-21T01:39:37;100403.49;;;11.38;62.11
42003;BME280;27693;50.506;30.832;2023-05-21T01:40:50;100414.05;;;11.35;62.01
42003;BME280;27693;50.506;30.832;2023-05-21T01:41:53;100412.04;;;11.42;61.62
42003;BME280;27693;50.506;30.832;2023-05-21T01:42:58;100410.23;;;11.44;61.73
42003;BME280;27693;50.506;30.832;2023-05-21T01:44:02;100408.70;;;11.38;61.87
42003;BME280;27693;50.506;30.832;2023-05-21T01:45:07;100398.18;;;11.41;61.82
42003;BME280;27693;50.506;30.832;2023-05-21T01:46:13;100411.44;;;11.35;61.99
42003;BME280;27693;50.506;30.832;2023-05-21T01:47:17;100402.69;;;11.36;62.05
42003;BME280;27693;50.506;30.832;2023-05-21T01:48:23;100405.30;;;11.36;62.09
42003;BME280;27693;50.506;30.832;2023-05-21T01:49:27;100407.23;;;11.31;62.17
42003;BME280;27693;50.506;30.832;2023-05-21T01:50:31;100407.23;;;11.31;61.97
42003;BME280;27693;50.506;30.832;2023-05-21T01:51:34;100413.31;;;11.31;61.98
42003;BME280;27693;50.506;30.832;2023-05-21T01:52:38;100408.94;;;11.32;61.94
42003;BME280;27693;50.506;30.832;2023-05-21T01:53:42;100408.20;;;11.28;61.99
42003;BME280;27693;50.506;30.832;2023-05-21T01:54:44;100407.47;;;11.25;62.21
42003;BME280;27693;50.506;30.832;2023-05-21T01:55:47;100405.03;;;11.20;62.16
42003;BME280;27693;50.506;30.832;2023-05-21T01:56:50;100401.52;;;11.21;62.28
42003;BME280;27693;50.506;30.832;2023-05-21T01:57:54;100396.98;;;11.26;62.00
42003;BME280;27693;50.506;30.832;2023-05-21T01:58:57;100402.43;;;11.20;62.32
42003;BME280;27693;50.506;30.832;2023-05-21T02:00:00;100399.95;;;11.17;62.29
42003;BME280;27693;50.506;30.832;2023-05-21T02:01:04;100400.86;;;11.16;62.05
42003;BME280;27693;50.506;30.832;2023-05-21T02:02:07;100409.47;;;11.18;62.27
42003;BME280;27693;50.506;30.832;2023-05-21T02:03:09;100404.13;;;11.21;61.57
42003;BME280;27693;50.506;30.832;2023-05-21T02:04:12;100403.16;;;11.24;61.71
42003;BME280;27693;50.506;30.832;2023-05-21T02:05:14;100406.63;;;11.24;61.74
42003;BME280;27693;50.506;30.832;2023-05-21T02:06:17;100407.87;;;11.14;62.08
42003;BME280;27693;50.506;30.832;2023-05-21T02:07:19;100416.48;;;11.16;62.01
42003;BME280;27693;50.506;30.832;2023-05-21T02:08:22;100412.17;;;11.15;62.28
42003;BME280;27693;50.506;30.832;2023-05-21T02:09:24;100406.16;;;11.13;62.53
42003;BME280;27693;50.506;30.832;2023-05-21T02:10:27;100408.23;;;11.05;62.65
42003;BME280;27693;50.506;30.832;2023-05-21T02:11:29;100405.39;;;11.11;62.44
42003;BME280;27693;50.506;30.832;2023-05-21T02:12:32;100412.17;;;11.15;62.13
42003;BME280;27693;50.506;30.832;2023-05-21T02:13:35;100408.77;;;11.13;61.96
42003;BME280;27693;50.506;30.832;2023-05-21T02:14:39;100411.38;;;11.13;62.02
42003;BME280;27693;50.506;30.832;2023-05-21T02:15:42;100414.11;;;11.10;61.98
42003;BME280;27693;50.506;30.832;2023-05-21T02:16:47;100415.81;;;11.11;61.67
42003;BME280;27693;50.506;30.832;2023-05-21T02:17:49;100412.17;;;11.15;62.01
42003;BME280;27693;50.506;30.832;2023-05-21T02:18:52;100414.91;;;11.12;61.91
42003;BME280;27693;50.506;30.832;2023-05-21T02:19:56;100410.47;;;11.14;61.79
42003;BME280;27693;50.506;30.832;2023-05-21T02:20:58;100413.08;;;11.14;61.90
42003;BME280;27693;50.506;30.832;2023-05-21T02:22:01;100412.98;;;11.17;61.73
42003;BME280;27693;50.506;30.832;2023-05-21T02:23:03;100410.24;;;11.20;61.70
42003;BME280;27693;50.506;30.832;2023-05-21T02:24:06;100411.27;;;11.16;61.66
42003;BME280;27693;50.506;30.832;2023-05-21T02:25:09;100406.00;;;11.17;61.60
42003;BME280;27693;50.506;30.832;2023-05-21T02:26:12;100408.77;;;11.13;61.68
42003;BME280;27693;50.506;30.832;2023-05-21T02:27:14;100408.77;;;11.13;61.71
42003;BME280;27693;50.506;30.832;2023-05-21T02:28:18;100406.69;;;10.99;61.89
42003;BME280;27693;50.506;30.832;2023-05-21T02:29:22;100410.19;;;10.98;62.06
42003;BME280;27693;50.506;30.832;2023-05-21T02:30:24;100409.45;;;10.94;62.46
42003;BME280;27693;50.506;30.832;2023-05-21T02:31:27;100417.27;;;10.94;62.38
42003;BME280;27693;50.506;30.832;2023-05-21T02:32:30;100408.48;;;10.97;62.09
42003;BME280;27693;50.506;30.832;2023-05-21T02:33:33;100413.41;;;10.81;62.33
42003;BME280;27693;50.506;30.832;2023-05-21T02:34:35;100407.52;;;10.76;62.48
42003;BME280;27693;50.506;30.832;2023-05-21T02:35:39;100414.46;;;10.75;62.72
42003;BME280;27693;50.506;30.832;2023-05-21T02:36:42;100414.37;;;10.78;62.69
42003;BME280;27693;50.506;30.832;2023-05-21T02:37:44;100424.56;;;10.84;62.63
42003;BME280;27693;50.506;30.832;2023-05-21T02:38:49;100420.19;;;10.85;62.52
42003;BME280;27693;50.506;30.832;2023-05-21T02:39:51;100421.80;;;10.89;62.29
42003;BME280;27693;50.506;30.832;2023-05-21T02:40:53;100413.83;;;10.94;62.21
42003;BME280;27693;50.506;30.832;2023-05-21T02:41:56;100420.61;;;10.98;62.17
42003;BME280;27693;50.506;30.832;2023-05-21T02:42:58;100423.05;;;11.02;61.74
42003;BME280;27693;50.506;30.832;2023-05-21T02:44:00;100420.51;;;11.01;61.74
42003;BME280;27693;50.506;30.832;2023-05-21T02:45:04;100422.92;;;11.06;61.52
42003;BME280;27693;50.506;30.832;2023-05-21T02:46:07;100414.34;;;11.03;61.54
42003;BME280;27693;50.506;30.832;2023-05-21T02:47:10;100416.08;;;11.03;61.63
42003;BME280;27693;50.506;30.832;2023-05-21T02:48:13;100418.97;;;10.95;61.73
42003;BME280;27693;50.506;30.832;2023-05-21T02:49:16;100417.27;;;10.94;61.83
42003;BME280;27693;50.506;30.832;2023-05-21T02:50:20;100411.48;;;10.86;61.86
42003;BME280;27693;50.506;30.832;2023-05-21T02:51:25;100406.27;;;10.86;61.83
42003;BME280;27693;50.506;30.832;2023-05-21T02:52:28;100418.39;;;10.87;61.95
42003;BME280;27693;50.506;30.832;2023-05-21T02:53:30;100399.13;;;10.67;62.54
42003;BME280;27693;50.506;30.832;2023-05-21T02:54:32;100399.13;;;10.67;62.54
42003;BME280;27693;50.506;30.832;2023-05-21T02:55:35;100400.84;;;10.68;62.38
42003;BME280;27693;50.506;30.832;2023-05-21T02:56:38;100408.73;;;10.65;62.64
42003;BME280;27693;50.506;30.832;2023-05-21T02:57:41;100407.96;;;10.63;62.65
42003;BME280;27693;50.506;30.832;2023-05-21T02:58:43;100403.88;;;10.56;62.84
42003;BME280;27693;50.506;30.832;2023-05-21T02:59:46;100407.59;;;10.49;63.30
42003;BME280;27693;50.506;30.832;2023-05-21T03:00:49;100414.59;;;10.47;63.03
42003;BME280;27693;50.506;30.832;2023-05-21T03:01:52;100416.38;;;10.45;63.21
42003;BME280;27693;50.506;30.832;2023-05-21T03:02:55;100419.94;;;10.42;63.21
42003;BME280;27693;50.506;30.832;2023-05-21T03:03:58;100422.39;;;10.47;63.06
42003;BME280;27693;50.506;30.832;2023-05-21T03:05:01;100420.90;;;10.39;63.37
42003;BME280;27693;50.506;30.832;2023-05-21T03:06:03;100421.80;;;10.38;63.50
42003;BME280;27693;50.506;30.832;2023-05-21T03:07:06;100418.56;;;10.30;63.87
42003;BME280;27693;50.506;30.832;2023-05-21T03:08:11;100420.47;;;10.25;64.00
42003;BME280;27693;50.506;30.832;2023-05-21T03:09:14;100414.23;;;10.31;63.85
42003;BME280;27693;50.506;30.832;2023-05-21T03:10:17;100418.74;;;10.26;63.98
42003;BME280;27693;50.506;30.832;2023-05-21T03:11:20;100412.52;;;10.30;63.93
42003;BME280;27693;50.506;30.832;2023-05-21T03:12:23;100408.79;;;10.38;63.69
42003;BME280;27693;50.506;30.832;2023-05-21T03:13:25;100407.80;;;10.43;63.49
42003;BME280;27693;50.506;30.832;2023-05-21T03:14:28;100411.39;;;10.38;63.67
42003;BME280;27693;50.506;30.832;2023-05-21T03:15:30;100413.00;;;10.43;63.62
42003;BME280;27693;50.506;30.832;2023-05-21T03:16:35;100407.80;;;10.43;63.45
42003;BME280;27693;50.506;30.832;2023-05-21T03:17:39;100411.39;;;10.38;63.47
42003;BME280;27693;50.506;30.832;2023-05-21T03:18:43;100407.89;;;10.39;63.38
42003;BME280;27693;50.506;30.832;2023-05-21T03:19:46;100413.00;;;10.43;63.40
42003;BME280;27693;50.506;30.832;2023-05-21T03:20:50;100411.98;;;10.47;63.32
42003;BME280;27693;50.506;30.832;2023-05-21T03:21:52;100415.39;;;10.49;63.30
42003;BME280;27693;50.506;30.832;2023-05-21T03:22:55;100413.63;;;10.49;63.29
42003;BME280;27693;50.506;30.832;2023-05-21T03:23:58;100425.95;;;10.44;63.44
42003;BME280;27693;50.506;30.832;2023-05-21T03:25:01;100420.75;;;10.44;63.48
42003;BME280;27693;50.506;30.832;2023-05-21T03:26:04;100418.08;;;10.46;63.34
42003;BME280;27693;50.506;30.832;2023-05-21T03:27:07;100413.56;;;10.51;63.35
42003;BME280;27693;50.506;30.832;2023-05-21T03:28:09;100421.19;;;10.57;63.28
42003;BME280;27693;50.506;30.832;2023-05-21T03:29:20;100425.31;;;10.63;63.09
42003;BME280;27693;50.506;30.832;2023-05-21T03:30:22;100420.10;;;10.63;62.78
42003;BME280;27693;50.506;30.832;2023-05-21T03:31:27;100420.97;;;10.63;62.58
42003;BME280;27693;50.506;30.832;2023-05-21T03:32:40;100426.92;;;10.67;62.68
42003;BME280;27693;50.506;30.832;2023-05-21T03:33:44;100422.55;;;10.67;62.56
42003;BME280;27693;50.506;30.832;2023-05-21T03:34:49;100423.58;;;10.63;62.58
42003;BME280;27693;50.506;30.832;2023-05-21T03:35:52;100426.17;;;10.63;62.60
42003;BME280;27693;50.506;30.832;2023-05-21T03:36:57;100429.39;;;10.70;62.44
42003;BME280;27693;50.506;30.832;2023-05-21T03:38:00;100430.45;;;10.64;62.53
42003;BME280;27693;50.506;30.832;2023-05-21T03:39:03;100430.58;;;10.61;62.69
42003;BME280;27693;50.506;30.832;2023-05-21T03:40:08;100429.77;;;10.59;62.81
42003;BME280;27693;50.506;30.832;2023-05-21T03:41:11;100432.64;;;10.51;63.04
42003;BME280;27693;50.506;30.832;2023-05-21T03:42:14;100437.19;;;10.45;63.31
42003;BME280;27693;50.506;30.832;2023-05-21T03:43:21;100429.36;;;10.46;63.22
42003;BME280;27693;50.506;30.832;2023-05-21T03:44:24;100438.06;;;10.45;63.39
42003;BME280;27693;50.506;30.832;2023-05-21T03:45:28;100439.77;;;10.46;63.33
42003;BME280;27693;50.506;30.832;2023-05-21T03:46:49;100431.78;;;10.51;63.27
42003;BME280;27693;50.506;30.832;2023-05-21T03:47:57;100433.39;;;10.55;63.13
42003;BME280;27693;50.506;30.832;2023-05-21T03:48:59;100439.28;;;10.60;63.04
42003;BME280;27693;50.506;30.832;2023-05-21T03:50:03;100430.64;;;10.60;62.91
42003;BME280;27693;50.506;30.832;2023-05-21T03:51:06;100436.89;;;10.54;62.98
42003;BME280;27693;50.506;30.832;2023-05-21T03:52:08;100435.84;;;10.60;63.02
42003;BME280;27693;50.506;30.832;2023-05-21T03:53:11;100440.83;;;10.66;62.91
42003;BME280;27693;50.506;30.832;2023-05-21T03:54:15;100445.17;;;10.65;62.86
42003;BME280;27693;50.506;30.832;2023-05-21T03:55:17;100436.25;;;10.73;62.71
42003;BME280;27693;50.506;30.832;2023-05-21T03:56:19;100438.62;;;10.79;62.62
42003;BME280;27693;50.506;30.832;2023-05-21T03:57:22;100441.14;;;10.82;62.46
42003;BME280;27693;50.506;30.832;2023-05-21T03:58:25;100439.44;;;10.81;62.46
42003;BME280;27693;50.506;30.832;2023-05-21T03:59:28;100439.21;;;10.87;62.28
42003;BME280;27693;50.506;30.832;2023-05-21T04:00:30;100443.80;;;10.80;62.40
42003;BME280;27693;50.506;30.832;2023-05-21T04:01:40;100432.65;;;10.77;62.64
42003;BME280;27693;50.506;30.832;2023-05-21T04:02:43;100435.34;;;10.74;62.85
42003;BME280;27693;50.506;30.832;2023-05-21T04:03:47;100437.48;;;10.62;63.18
42003;BME280;27693;50.506;30.832;2023-05-21T04:04:50;100436.46;;;10.66;63.00
42003;BME280;27693;50.506;30.832;2023-05-21T04:05:55;100431.04;;;10.73;62.87
42003;BME280;27693;50.506;30.832;2023-05-21T04:06:57;100430.81;;;10.79;62.71
42003;BME280;27693;50.506;30.832;2023-05-21T04:08:01;100431.62;;;10.81;62.71
42003;BME280;27693;50.506;30.832;2023-05-21T04:09:04;100430.73;;;10.82;62.74
42003;BME280;27693;50.506;30.832;2023-05-21T04:10:07;100430.50;;;10.88;62.75
42003;BME280;27693;50.506;30.832;2023-05-21T04:11:11;100433.05;;;10.90;62.62
42003;BME280;27693;50.506;30.832;2023-05-21T04:12:13;100433.78;;;10.93;62.62
42003;BME280;27693;50.506;30.832;2023-05-21T04:13:15;100434.69;;;10.92;62.60
42003;BME280;27693;50.506;30.832;2023-05-21T04:14:19;100432.08;;;10.92;62.38
42003;BME280;27693;50.506;30.832;2023-05-21T04:15:25;100436.36;;;10.95;62.32
42003;BME280;27693;50.506;30.832;2023-05-21T04:16:28;100416.14;;;11.01;61.99
42003;BME280;27693;50.506;30.832;2023-05-21T04:17:32;100416.14;;;11.01;61.99
42003;BME280;27693;50.506;30.832;2023-05-21T04:18:36;100431.30;;;11.14;61.74
42003;BME280;27693;50.506;30.832;2023-05-21T04:19:39;100433.02;;;11.15;61.72
42003;BME280;27693;50.506;30.832;2023-05-21T04:20:43;100442.23;;;11.24;61.46
42003;BME280;27693;50.506;30.832;2023-05-21T04:21:46;100437.76;;;11.27;61.42
42003;BME280;27693;50.506;30.832;2023-05-21T04:22:49;100441.40;;;11.23;61.34
42003;BME280;27693;50.506;30.832;2023-05-21T04:23:53;100434.48;;;11.22;61.47
42003;BME280;27693;50.506;30.832;2023-05-21T04:24:59;100435.12;;;11.29;61.37
42003;BME280;27693;50.506;30.832;2023-05-21T04:26:04;100431.48;;;11.33;61.31
42003;BME280;27693;50.506;30.832;2023-05-21T04:27:07;100431.48;;;11.33;61.25
42003;BME280;27693;50.506;30.832;2023-05-21T04:28:10;100434.16;;;11.31;61.33
42003;BME280;27693;50.506;30.832;2023-05-21T04:29:13;100433.12;;;11.35;61.12
42003;BME280;27693;50.506;30.832;2023-05-21T04:30:17;100429.61;;;11.37;61.18
42003;BME280;27693;50.506;30.832;2023-05-21T04:31:21;100434.58;;;11.43;60.92
42003;BME280;27693;50.506;30.832;2023-05-21T04:32:25;100440.20;;;11.32;61.11
42003;BME280;27693;50.506;30.832;2023-05-21T04:33:29;100437.42;;;11.37;61.28
42003;BME280;27693;50.506;30.832;2023-05-21T04:34:33;100434.66;;;11.41;61.26
42003;BME280;27693;50.506;30.832;2023-05-21T04:35:36;100440.46;;;11.48;61.11
42003;BME280;27693;50.506;30.832;2023-05-21T04:36:38;100434.17;;;11.54;60.92
42003;BME280;27693;50.506;30.832;2023-05-21T04:37:42;100436.61;;;11.58;60.98
42003;BME280;27693;50.506;30.832;2023-05-21T04:38:47;100431.27;;;11.61;60.87
42003;BME280;27693;50.506;30.832;2023-05-21T04:39:50;100434.77;;;11.60;60.81
42003;BME280;27693;50.506;30.832;2023-05-21T04:40:53;100432.86;;;11.65;60.79
42003;BME280;27693;50.506;30.832;2023-05-21T04:41:56;100431.82;;;11.70;60.68
42003;BME280;27693;50.506;30.832;2023-05-21T04:43:00;100429.04;;;11.74;60.59
42003;BME280;27693;50.506;30.832;2023-05-21T04:44:03;100426.19;;;11.80;60.46
42003;BME280;27693;50.506;30.832;2023-05-21T04:45:08;100420.91;;;11.82;60.34
42003;BME280;27693;50.506;30.832;2023-05-21T04:46:12;100426.81;;;11.87;60.27
42003;BME280;27693;50.506;30.832;2023-05-21T04:47:15;100421.34;;;11.93;59.88
42003;BME280;27693;50.506;30.832;2023-05-21T04:48:20;100423.77;;;11.98;59.86
42003;BME280;27693;50.506;30.832;2023-05-21T04:49:24;100419.49;;;11.97;59.89
42003;BME280;27693;50.506;30.832;2023-05-21T04:50:26;100416.67;;;12.02;59.76
42003;BME280;27693;50.506;30.832;2023-05-21T04:51:30;100416.67;;;12.02;59.82
42003;BME280;27693;50.506;30.832;2023-05-21T04:52:33;100404.58;;;12.01;60.23
42003;BME280;27693;50.506;30.832;2023-05-21T04:53:35;100419.17;;;12.05;59.58
42003;BME280;27693;50.506;30.832;2023-05-21T04:54:38;100414.61;;;12.10;59.40
42003;BME280;27693;50.506;30.832;2023-05-21T04:55:42;100410.26;;;12.10;59.19
42003;BME280;27693;50.506;30.832;2023-05-21T04:56:45;100415.15;;;12.18;59.09
42003;BME280;27693;50.506;30.832;2023-05-21T04:57:49;100416.59;;;12.25;58.99
42003;BME280;27693;50.506;30.832;2023-05-21T04:58:53;100416.59;;;12.25;59.12
42003;BME280;27693;50.506;30.832;2023-05-21T04:59:56;100421.70;;;12.28;59.06
42003;BME280;27693;50.506;30.832;2023-05-21T05:00:59;100413.65;;;12.33;58.98
42003;BME280;27693;50.506;30.832;2023-05-21T05:02:05;100413.65;;;12.33;58.98
42003;BME280;27693;50.506;30.832;2023-05-21T05:03:07;100422.01;;;12.41;58.88
42003;BME280;27693;50.506;30.832;2023-05-21T05:04:09;100425.34;;;12.45;58.97
42003;BME280;27693;50.506;30.832;2023-05-21T05:05:12;100424.05;;;12.55;58.76
42003;BME280;27693;50.506;30.832;2023-05-21T05:06:15;100419.59;;;12.57;58.47
42003;BME280;27693;50.506;30.832;2023-05-21T05:07:17;100414.97;;;12.64;58.34
42003;BME280;27693;50.506;30.832;2023-05-21T05:08:20;100419.28;;;12.65;58.36
42003;BME280;27693;50.506;30.832;2023-05-21T05:09:22;100422.72;;;12.66;58.15
42003;BME280;27693;50.506;30.832;2023-05-21T05:10:27;100418.14;;;12.71;58.14
42003;BME280;27693;50.506;30.832;2023-05-21T05:11:29;100413.00;;;12.69;58.24
42003;BME280;27693;50.506;30.832;2023-05-21T05:12:33;100419.32;;;12.63;58.29
42003;BME280;27693;50.506;30.832;2023-05-21T05:13:37;100418.30;;;12.68;58.08
42003;BME280;27693;50.506;30.832;2023-05-21T05:14:40;100414.62;;;12.72;58.43
42003;BME280;27693;50.506;30.832;2023-05-21T05:15:44;100414.42;;;12.76;58.37
42003;BME280;27693;50.506;30.832;2023-05-21T05:16:49;100416.69;;;12.84;58.14
42003;BME280;27693;50.506;30.832;2023-05-21T05:17:52;100422.15;;;12.99;57.65
42003;BME280;27693;50.506;30.832;2023-05-21T05:18:55;100422.15;;;12.99;57.65
42003;BME280;27693;50.506;30.832;2023-05-21T05:19:58;100423.73;;;13.03;57.66
42003;BME280;27693;50.506;30.832;2023-05-21T05:21:01;100426.19;;;13.06;57.39
42003;BME280;27693;50.506;30.832;2023-05-21T05:22:04;100414.83;;;13.07;57.34
42003;BME280;27693;50.506;30.832;2023-05-21T05:23:06;100425.15;;;13.10;57.44
42003;BME280;27693;50.506;30.832;2023-05-21T05:24:09;100412.72;;;13.15;57.33
42003;BME280;27693;50.506;30.832;2023-05-21T05:25:13;100421.97;;;13.22;57.33
42003;BME280;27693;50.506;30.832;2023-05-21T05:26:15;100420.20;;;13.23;57.32
42003;BME280;27693;50.506;30.832;2023-05-21T05:27:18;100417.38;;;13.28;57.03
42003;BME280;27693;50.506;30.832;2023-05-21T05:28:21;100413.02;;;13.28;56.96
42003;BME280;27693;50.506;30.832;2023-05-21T05:29:23;100415.67;;;13.26;57.07